createdAt,value
2018-07-25T00:01:43.317Z,25.50
2018-07-25T00:04:10.698Z,25.50
2018-07-25T00:06:38.129Z,25.50
2018-07-25T00:09:07.815Z,25.40
2018-07-25T00:11:35.359Z,25.30
2018-07-25T00:14:02.920Z,25.20
2018-07-25T00:16:30.331Z,25.20
2018-07-25T00:18:58.119Z,25.10
2018-07-25T00:21:25.616Z,25.00
2018-07-25T00:23:53.030Z,24.90
2018-07-25T00:26:20.431Z,24.90
2018-07-25T00:28:47.811Z,24.80
2018-07-25T00:31:15.263Z,24.80
2018-07-25T00:33:43.050Z,24.80
2018-07-25T00:36:10.479Z,24.70
2018-07-25T00:38:37.899Z,24.70
2018-07-25T00:41:05.310Z,24.70
2018-07-25T00:46:00.191Z,24.70
2018-07-25T00:48:27.595Z,24.70
2018-07-25T00:50:55.143Z,24.80
2018-07-25T00:53:23.050Z,24.70
2018-07-25T00:55:50.438Z,24.60
2018-07-25T00:58:17.831Z,24.60
2018-07-25T01:00:45.239Z,24.50
2018-07-25T01:03:12.688Z,24.50
2018-07-25T01:05:40.162Z,24.40
2018-07-25T01:08:08.488Z,24.40
2018-07-25T01:10:40.341Z,24.30
2018-07-25T01:13:07.896Z,24.30
2018-07-25T01:15:35.316Z,24.30
2018-07-25T01:18:02.795Z,24.20
2018-07-25T01:20:30.168Z,24.20
2018-07-25T01:22:57.618Z,24.10
2018-07-25T01:25:25.007Z,24.10
2018-07-25T01:27:52.399Z,24.00
2018-07-25T01:30:19.787Z,23.80
2018-07-25T01:32:47.172Z,23.90
2018-07-25T01:35:14.566Z,23.90
2018-07-25T01:37:41.967Z,23.90
2018-07-25T01:40:09.335Z,23.90
2018-07-25T01:42:36.854Z,23.80
2018-07-25T01:45:04.323Z,23.80
2018-07-25T01:47:31.740Z,23.80
2018-07-25T01:49:59.193Z,23.80
2018-07-25T01:52:26.598Z,23.70
2018-07-25T01:54:53.967Z,23.70
2018-07-25T01:57:21.327Z,23.60
2018-07-25T01:59:48.752Z,23.60
2018-07-25T02:02:16.225Z,23.60
2018-07-25T02:04:43.667Z,23.60
2018-07-25T02:07:11.077Z,23.50
2018-07-25T02:09:38.498Z,23.50
2018-07-25T02:12:05.948Z,23.50
2018-07-25T02:14:34.858Z,23.40
2018-07-25T02:17:02.286Z,23.30
2018-07-25T02:19:29.718Z,23.30
2018-07-25T02:21:57.188Z,23.30
2018-07-25T02:24:24.595Z,23.30
2018-07-25T02:26:51.984Z,23.30
2018-07-25T02:29:19.443Z,23.10
2018-07-25T02:31:46.878Z,23.20
2018-07-25T02:34:20.368Z,23.20
2018-07-25T02:36:48.144Z,23.10
2018-07-25T02:39:15.615Z,23.00
2018-07-25T02:41:44.023Z,23.00
2018-07-25T02:44:11.703Z,23.00
2018-07-25T02:46:39.448Z,23.00
2018-07-25T02:49:07.054Z,22.90
2018-07-25T02:51:34.614Z,22.90
2018-07-25T02:54:02.439Z,22.90
2018-07-25T02:56:29.962Z,22.90
2018-07-25T02:58:57.367Z,22.90
2018-07-25T03:01:24.755Z,22.80
2018-07-25T03:03:52.131Z,22.80
2018-07-25T03:06:19.563Z,22.70
2018-07-25T03:08:46.950Z,22.70
2018-07-25T03:11:14.647Z,22.70
2018-07-25T03:13:42.040Z,22.70
2018-07-25T03:16:10.751Z,22.70
2018-07-25T03:18:40.024Z,22.60
2018-07-25T03:21:07.390Z,22.60
2018-07-25T03:23:35.634Z,22.60
2018-07-25T03:26:03.076Z,22.50
2018-07-25T03:28:30.755Z,22.50
2018-07-25T03:30:58.659Z,22.50
2018-07-25T03:33:26.331Z,22.40
2018-07-25T03:35:54.798Z,22.40
2018-07-25T03:38:22.175Z,22.40
2018-07-25T03:40:51.727Z,22.30
2018-07-25T03:43:19.175Z,22.30
2018-07-25T03:45:46.590Z,22.30
2018-07-25T03:48:13.959Z,22.30
2018-07-25T03:50:41.390Z,22.30
2018-07-25T03:53:08.735Z,22.30
2018-07-25T03:55:36.142Z,22.20
2018-07-25T03:58:03.621Z,22.20
2018-07-25T04:00:31.023Z,22.20
2018-07-25T04:02:58.467Z,22.20
2018-07-25T04:05:25.927Z,22.20
2018-07-25T04:07:53.395Z,22.20
2018-07-25T04:10:21.128Z,22.20
2018-07-25T04:12:50.131Z,22.20
2018-07-25T04:15:17.560Z,22.20
2018-07-25T04:17:46.227Z,22.20
2018-07-25T04:20:14.782Z,22.10
2018-07-25T04:22:42.211Z,22.10
2018-07-25T04:25:10.035Z,22.10
2018-07-25T04:27:39.378Z,22.10
2018-07-25T04:30:08.146Z,22.20
2018-07-25T04:32:35.547Z,22.20
2018-07-25T04:35:03.024Z,22.20
2018-07-25T04:37:30.405Z,22.20
2018-07-25T04:39:57.804Z,22.30
2018-07-25T04:42:25.809Z,22.40
2018-07-25T04:44:53.261Z,22.50
2018-07-25T04:47:20.862Z,22.60
2018-07-25T04:49:48.418Z,22.70
2018-07-25T04:52:17.188Z,22.80
2018-07-25T04:54:44.891Z,22.80
2018-07-25T04:57:12.431Z,22.90
2018-07-25T04:59:39.831Z,22.90
2018-07-25T05:02:07.503Z,22.90
2018-07-25T05:04:34.855Z,23.00
2018-07-25T05:07:02.488Z,23.00
2018-07-25T05:09:29.871Z,23.00
2018-07-25T05:11:59.498Z,23.10
2018-07-25T05:14:26.943Z,23.20
2018-07-25T05:16:54.346Z,23.20
2018-07-25T05:19:21.780Z,23.40
2018-07-25T05:21:49.203Z,23.60
2018-07-25T05:24:16.539Z,23.90
2018-07-25T05:26:43.879Z,24.30
2018-07-25T05:29:11.259Z,25.00
2018-07-25T05:31:38.648Z,25.60
2018-07-25T05:34:06.002Z,26.10
2018-07-25T05:36:33.365Z,26.50
2018-07-25T05:39:00.708Z,27.10
2018-07-25T05:41:28.255Z,27.60
2018-07-25T05:43:55.758Z,28.10
2018-07-25T05:46:23.056Z,28.40
2018-07-25T05:48:50.419Z,28.60
2018-07-25T05:51:17.834Z,28.50
2018-07-25T05:53:45.348Z,28.40
2018-07-25T05:56:12.699Z,28.30
2018-07-25T05:58:40.110Z,28.00
2018-07-25T06:01:07.878Z,27.80
2018-07-25T06:03:35.595Z,27.60
2018-07-25T06:08:30.585Z,27.20
2018-07-25T06:13:25.395Z,27.00
2018-07-25T06:15:52.795Z,26.90
2018-07-25T06:18:20.251Z,26.90
2018-07-25T06:20:47.763Z,26.90
2018-07-25T06:23:15.170Z,26.80
2018-07-25T06:25:42.605Z,26.80
2018-07-25T06:28:09.981Z,26.70
2018-07-25T06:30:37.412Z,26.70
2018-07-25T06:33:04.823Z,26.70
2018-07-25T06:35:32.276Z,26.70
2018-07-25T06:37:59.766Z,26.60
2018-07-25T06:40:27.123Z,26.60
2018-07-25T06:42:54.616Z,26.70
2018-07-25T06:45:22.155Z,26.70
2018-07-25T06:47:49.710Z,26.60
2018-07-25T06:50:17.138Z,26.70
2018-07-25T06:52:44.615Z,26.70
2018-07-25T06:55:12.050Z,26.70
2018-07-25T06:57:39.459Z,26.70
2018-07-25T07:00:07.043Z,26.80
2018-07-25T07:02:34.595Z,26.80
2018-07-25T07:05:01.975Z,26.80
2018-07-25T07:07:30.722Z,26.80
2018-07-25T07:09:58.370Z,26.70
2018-07-25T07:12:25.903Z,26.80
2018-07-25T07:14:53.254Z,26.80
2018-07-25T07:19:48.019Z,27.00
2018-07-25T07:22:15.410Z,27.00
2018-07-25T07:24:42.775Z,27.00
2018-07-25T07:27:10.232Z,27.00
2018-07-25T07:29:37.777Z,27.00
2018-07-25T07:32:10.007Z,27.00
2018-07-25T07:34:37.399Z,27.00
2018-07-25T07:37:04.799Z,27.10
2018-07-25T07:39:32.147Z,27.10
2018-07-25T07:41:59.538Z,27.20
2018-07-25T07:44:26.890Z,27.30
2018-07-25T07:46:54.259Z,27.40
2018-07-25T07:49:22.874Z,27.50
2018-07-25T07:51:50.463Z,27.60
2018-07-25T07:54:17.887Z,27.70
2018-07-25T07:56:45.358Z,27.80
2018-07-25T07:59:12.739Z,28.00
2018-07-25T08:01:40.111Z,28.00
2018-07-25T08:04:10.750Z,28.10
2018-07-25T08:06:38.127Z,28.20
2018-07-25T08:09:08.243Z,28.20
2018-07-25T08:11:35.634Z,28.30
2018-07-25T08:14:03.024Z,28.50
2018-07-25T08:16:34.111Z,28.70
2018-07-25T08:19:01.535Z,28.90
2018-07-25T08:21:28.931Z,29.00
2018-07-25T08:23:56.382Z,29.10
2018-07-25T08:26:23.811Z,29.10
2018-07-25T08:28:51.214Z,29.20
2018-07-25T08:31:18.634Z,29.30
2018-07-25T08:33:46.021Z,29.40
2018-07-25T08:36:13.472Z,29.40
2018-07-25T08:38:42.091Z,29.40
2018-07-25T08:41:09.481Z,29.40
2018-07-25T08:43:38.147Z,29.50
2018-07-25T08:46:06.844Z,29.60
2018-07-25T08:48:34.244Z,29.50
2018-07-25T08:51:01.924Z,29.60
2018-07-25T08:53:29.391Z,29.60
2018-07-25T08:55:56.813Z,29.60
2018-07-25T08:58:28.981Z,29.70
2018-07-25T09:00:56.434Z,29.90
2018-07-25T09:03:24.091Z,30.00
2018-07-25T09:05:51.615Z,30.00
2018-07-25T09:08:18.998Z,30.10
2018-07-25T09:10:50.755Z,30.20
2018-07-25T09:13:18.147Z,30.20
2018-07-25T09:15:45.633Z,30.30
2018-07-25T09:18:13.171Z,30.40
2018-07-25T09:20:40.570Z,30.40
2018-07-25T09:23:07.994Z,30.50
2018-07-25T09:25:37.327Z,30.50
2018-07-25T09:28:04.859Z,30.60
2018-07-25T09:30:32.279Z,30.70
2018-07-25T09:32:59.671Z,30.70
2018-07-25T09:35:27.081Z,30.80
2018-07-25T09:37:59.008Z,31.00
2018-07-25T09:40:26.380Z,31.00
2018-07-25T09:42:53.923Z,31.10
2018-07-25T09:45:21.267Z,31.30
2018-07-25T09:47:48.646Z,31.50
2018-07-25T09:50:17.014Z,31.80
2018-07-25T09:52:48.635Z,32.00
2018-07-25T09:55:15.989Z,32.20
2018-07-25T09:57:43.392Z,32.40
2018-07-25T10:00:12.246Z,32.70
2018-07-25T10:02:44.647Z,33.00
2018-07-25T10:05:12.074Z,33.30
2018-07-25T10:07:39.492Z,33.60
2018-07-25T10:10:06.954Z,33.80
2018-07-25T10:12:34.610Z,34.10
2018-07-25T10:15:02.034Z,34.30
2018-07-25T10:17:30.854Z,34.40
2018-07-25T10:19:58.351Z,34.60
2018-07-25T10:22:25.738Z,34.70
2018-07-25T10:24:53.100Z,35.00
2018-07-25T10:27:20.609Z,35.20
2018-07-25T10:32:15.345Z,35.50
2018-07-25T10:34:45.522Z,35.70
2018-07-25T10:37:12.886Z,35.90
2018-07-25T10:39:40.320Z,36.00
2018-07-25T10:42:07.743Z,36.00
2018-07-25T10:44:35.172Z,36.10
2018-07-25T10:47:02.583Z,36.10
2018-07-25T10:49:33.153Z,36.20
2018-07-25T10:52:00.560Z,36.50
2018-07-25T10:54:28.011Z,36.70
2018-07-25T10:56:55.579Z,37.00
2018-07-25T10:59:23.010Z,37.20
2018-07-25T11:01:50.459Z,37.40
2018-07-25T11:04:17.936Z,37.50
2018-07-25T11:06:46.715Z,37.50
2018-07-25T11:09:14.094Z,37.50
2018-07-25T11:11:41.551Z,37.30
2018-07-25T11:14:08.979Z,37.10
2018-07-25T11:16:36.787Z,36.70
2018-07-25T11:19:04.168Z,36.60
2018-07-25T11:21:31.624Z,36.80
2018-07-25T11:26:27.379Z,37.50
2018-07-25T11:28:55.002Z,37.60
2018-07-25T11:31:22.463Z,37.30
2018-07-25T11:33:49.866Z,37.20
2018-07-25T11:36:17.248Z,36.70
2018-07-25T11:38:44.663Z,36.40
2018-07-25T11:41:12.068Z,36.20
2018-07-25T11:43:39.561Z,36.10
2018-07-25T11:46:06.979Z,36.40
2018-07-25T11:48:34.510Z,36.90
2018-07-25T11:51:01.971Z,37.10
2018-07-25T11:53:29.398Z,37.10
2018-07-25T11:55:56.863Z,37.10
2018-07-25T11:58:24.535Z,36.90
2018-07-25T12:00:51.990Z,36.80
2018-07-25T12:03:19.348Z,36.70
2018-07-25T12:05:46.747Z,36.70
2018-07-25T12:08:14.143Z,36.60
2018-07-25T12:10:41.569Z,36.50
2018-07-25T12:13:08.939Z,36.50
2018-07-25T12:18:04.095Z,36.50
2018-07-25T12:20:31.591Z,36.80
2018-07-25T12:22:58.956Z,37.00
2018-07-25T12:25:30.811Z,36.90
2018-07-25T12:27:58.190Z,37.20
2018-07-25T12:30:25.655Z,37.00
2018-07-25T12:32:53.035Z,36.90
2018-07-25T12:35:20.448Z,37.10
2018-07-25T12:37:53.509Z,37.30
2018-07-25T12:40:20.933Z,37.50
2018-07-25T12:42:48.448Z,37.60
2018-07-25T12:45:15.810Z,37.80
2018-07-25T12:47:43.198Z,37.60
2018-07-25T12:50:10.794Z,37.80
2018-07-25T12:52:40.027Z,37.70
2018-07-25T12:55:07.390Z,37.70
2018-07-25T12:57:35.041Z,37.40
2018-07-25T13:00:02.579Z,37.30
2018-07-25T13:02:29.982Z,37.10
2018-07-25T13:04:57.331Z,37.00
2018-07-25T13:07:24.691Z,36.70
2018-07-25T13:09:52.062Z,36.30
2018-07-25T13:12:19.440Z,36.20
2018-07-25T13:14:46.791Z,36.20
2018-07-25T13:17:14.193Z,36.10
2018-07-25T13:19:41.591Z,36.00
2018-07-25T13:22:08.967Z,35.90
2018-07-25T13:24:36.355Z,35.90
2018-07-25T13:27:03.736Z,35.70
2018-07-25T13:29:31.107Z,35.30
2018-07-25T13:31:58.458Z,35.40
2018-07-25T13:34:25.860Z,35.20
2018-07-25T13:36:53.308Z,35.10
2018-07-25T13:39:20.641Z,35.00
2018-07-25T13:41:48.023Z,35.00
2018-07-25T13:44:15.395Z,34.90
2018-07-25T13:46:42.792Z,35.20
2018-07-25T13:49:10.155Z,35.00
2018-07-25T13:51:37.747Z,34.80
2018-07-25T13:54:05.175Z,34.50
2018-07-25T13:56:32.712Z,34.10
2018-07-25T13:59:00.118Z,34.00
2018-07-25T14:01:27.526Z,33.80
2018-07-25T14:03:54.930Z,33.70
2018-07-25T14:06:22.347Z,33.70
2018-07-25T14:08:49.733Z,33.60
2018-07-25T14:11:17.142Z,33.60
2018-07-25T14:13:44.599Z,33.50
2018-07-25T14:16:12.690Z,33.40
2018-07-25T14:18:40.051Z,33.40
2018-07-25T14:21:07.471Z,33.50
2018-07-25T14:23:34.923Z,33.60
2018-07-25T14:26:02.205Z,33.80
2018-07-25T14:28:33.608Z,33.90
2018-07-25T14:31:01.136Z,34.30
2018-07-25T14:33:28.471Z,34.40
2018-07-25T14:35:55.845Z,34.40
2018-07-25T14:38:23.247Z,34.30
2018-07-25T14:40:51.004Z,34.00
2018-07-25T14:43:20.461Z,33.90
2018-07-25T14:45:47.819Z,34.10
2018-07-25T14:48:15.203Z,34.10
2018-07-25T14:50:42.554Z,34.40
2018-07-25T14:53:09.915Z,34.80
2018-07-25T14:55:37.397Z,35.10
2018-07-25T15:00:32.206Z,35.60
2018-07-25T15:02:59.579Z,35.60
2018-07-25T15:05:27.031Z,35.70
2018-07-25T15:07:54.408Z,36.00
2018-07-25T15:10:21.890Z,36.20
2018-07-25T15:12:55.059Z,36.20
2018-07-25T15:15:22.419Z,36.50
2018-07-25T15:17:49.835Z,36.90
2018-07-25T15:20:17.215Z,37.30
2018-07-25T15:22:44.647Z,37.60
2018-07-25T15:25:12.004Z,37.80
2018-07-25T15:27:39.547Z,37.90
2018-07-25T15:30:08.211Z,37.90
2018-07-25T15:32:35.735Z,37.80
2018-07-25T15:35:03.280Z,37.80
2018-07-25T15:37:30.692Z,37.80
2018-07-25T15:39:58.076Z,37.80
2018-07-25T15:42:25.451Z,37.60
2018-07-25T15:44:52.818Z,37.30
2018-07-25T15:47:20.225Z,37.00
2018-07-25T15:49:47.610Z,36.70
2018-07-25T15:52:15.089Z,36.30
2018-07-25T15:54:42.475Z,36.00
2018-07-25T15:57:10.015Z,35.70
2018-07-25T15:59:37.545Z,35.40
2018-07-25T16:02:04.979Z,35.10
2018-07-25T16:04:32.439Z,35.00
2018-07-25T16:06:59.862Z,34.80
2018-07-25T16:09:27.318Z,34.70
2018-07-25T16:11:54.780Z,34.60
2018-07-25T16:14:22.187Z,34.50
2018-07-25T16:19:17.078Z,34.50
2018-07-25T16:21:44.500Z,34.40
2018-07-25T16:24:11.975Z,34.40
2018-07-25T16:26:39.495Z,34.30
2018-07-25T16:29:07.023Z,34.30
2018-07-25T16:31:34.495Z,34.10
2018-07-25T16:34:02.141Z,34.10
2018-07-25T16:36:29.580Z,34.00
2018-07-25T16:38:57.002Z,33.90
2018-07-25T16:41:24.476Z,33.80
2018-07-25T16:43:51.915Z,33.60
2018-07-25T16:46:19.383Z,33.30
2018-07-25T16:48:46.827Z,33.10
2018-07-25T16:51:14.487Z,33.00
2018-07-25T16:53:42.044Z,32.90
2018-07-25T16:56:09.843Z,32.80
2018-07-25T16:58:37.416Z,32.60
2018-07-25T17:01:04.855Z,32.60
2018-07-25T17:03:32.271Z,32.40
2018-07-25T17:05:59.671Z,32.30
2018-07-25T17:08:27.099Z,32.20
2018-07-25T17:10:54.467Z,32.20
2018-07-25T17:13:21.914Z,32.10
2018-07-25T17:15:49.288Z,32.00
2018-07-25T17:18:19.944Z,32.00
2018-07-25T17:20:48.114Z,31.90
2018-07-25T17:23:15.543Z,31.90
2018-07-25T17:25:43.015Z,31.70
2018-07-25T17:28:10.384Z,31.70
2018-07-25T17:30:37.900Z,31.60
2018-07-25T17:33:05.367Z,31.60
2018-07-25T17:35:32.909Z,31.50
2018-07-25T17:38:00.342Z,31.40
2018-07-25T17:40:27.831Z,31.30
2018-07-25T17:42:55.235Z,31.30
2018-07-25T17:45:22.667Z,31.20
2018-07-25T17:47:54.785Z,31.20
2018-07-25T17:50:22.194Z,31.10
2018-07-25T17:52:49.422Z,31.10
2018-07-25T17:55:16.579Z,31.00
2018-07-25T17:57:43.898Z,31.00
2018-07-25T18:00:15.451Z,30.90
2018-07-25T18:02:42.707Z,30.80
2018-07-25T18:05:10.380Z,30.60
2018-07-25T18:07:37.674Z,30.50
2018-07-25T18:10:08.247Z,30.50
2018-07-25T18:12:35.511Z,30.40
2018-07-25T18:15:03.956Z,30.20
2018-07-25T18:17:31.199Z,30.20
2018-07-25T18:19:58.441Z,30.00
2018-07-25T18:22:26.392Z,29.90
2018-07-25T18:24:53.717Z,29.80
2018-07-25T18:27:20.967Z,29.70
2018-07-25T18:29:48.188Z,29.60
2018-07-25T18:32:15.419Z,29.50
2018-07-25T18:34:42.651Z,29.40
2018-07-25T18:37:09.907Z,29.30
2018-07-25T18:39:37.167Z,29.20
2018-07-25T18:42:04.489Z,29.10
2018-07-25T18:44:31.699Z,29.10
2018-07-25T18:46:59.027Z,29.00
2018-07-25T18:49:26.263Z,29.00
2018-07-25T18:51:53.487Z,28.90
2018-07-25T18:54:20.672Z,28.90
2018-07-25T18:56:47.847Z,28.80
2018-07-25T18:59:15.075Z,28.80
2018-07-25T19:01:43.785Z,28.70
2018-07-25T19:04:11.047Z,28.60
2018-07-25T19:06:38.316Z,28.60
2018-07-25T19:09:08.331Z,28.50
2018-07-25T19:11:35.535Z,28.50
2018-07-25T19:14:08.411Z,28.40
2018-07-25T19:16:35.648Z,28.30
2018-07-25T19:19:03.165Z,28.30
2018-07-25T19:21:30.435Z,28.30
2018-07-25T19:23:58.249Z,28.20
2018-07-25T19:26:25.596Z,28.10
2018-07-25T19:28:52.802Z,28.00
2018-07-25T19:31:20.035Z,28.00
2018-07-25T19:36:14.486Z,27.90
2018-07-25T19:38:41.763Z,27.90
2018-07-25T19:41:09.011Z,27.80
2018-07-25T19:43:36.255Z,27.80
2018-07-25T19:46:03.503Z,27.80
2018-07-25T19:48:30.724Z,27.70
2018-07-25T19:50:58.192Z,27.70
2018-07-25T19:53:30.905Z,27.60
2018-07-25T19:55:59.119Z,27.60
2018-07-25T19:58:26.591Z,27.60
2018-07-25T20:00:54.158Z,27.50
2018-07-25T20:03:21.584Z,27.40
2018-07-25T20:05:49.058Z,27.50
2018-07-25T20:08:16.544Z,27.50
2018-07-25T20:10:44.007Z,27.50
2018-07-25T20:13:11.645Z,27.40
2018-07-25T20:15:44.800Z,27.40
2018-07-25T20:18:12.191Z,27.40
2018-07-25T20:20:39.635Z,27.30
2018-07-25T20:23:07.141Z,27.40
2018-07-25T20:25:34.545Z,27.30
2018-07-25T20:28:02.134Z,27.20
2018-07-25T20:30:29.515Z,27.20
2018-07-25T20:32:56.951Z,27.20
2018-07-25T20:35:24.378Z,27.20
2018-07-25T20:37:51.852Z,27.10
2018-07-25T20:40:19.468Z,27.10
2018-07-25T20:42:48.956Z,27.00
2018-07-25T20:45:16.371Z,27.00
2018-07-25T20:47:43.940Z,27.00
2018-07-25T20:50:11.394Z,27.00
2018-07-25T20:52:38.952Z,26.90
2018-07-25T20:55:06.399Z,27.00
2018-07-25T20:57:33.838Z,26.90
2018-07-25T21:00:01.380Z,26.90
2018-07-25T21:02:28.772Z,26.90
2018-07-25T21:04:56.146Z,26.90
2018-07-25T21:07:23.527Z,26.90
2018-07-25T21:09:50.895Z,26.80
2018-07-25T21:12:18.359Z,26.70
2018-07-25T21:14:46.098Z,26.80
2018-07-25T21:17:13.522Z,26.70
2018-07-25T21:19:40.892Z,26.70
2018-07-25T21:22:08.283Z,26.70
2018-07-25T21:24:35.629Z,26.70
2018-07-25T21:27:03.115Z,26.70
2018-07-25T21:29:30.516Z,26.70
2018-07-25T21:31:57.938Z,26.70
2018-07-25T21:34:25.315Z,26.70
2018-07-25T21:36:52.658Z,26.60
2018-07-25T21:39:20.064Z,26.60
2018-07-25T21:41:47.472Z,26.50
2018-07-25T21:44:14.977Z,26.60
2018-07-25T21:46:42.348Z,26.60
2018-07-25T21:49:09.752Z,26.50
2018-07-25T21:51:37.221Z,26.50
2018-07-25T21:54:04.674Z,26.50
2018-07-25T21:56:32.436Z,26.40
2018-07-25T21:58:59.795Z,26.40
2018-07-25T22:01:27.270Z,26.40
2018-07-25T22:03:54.683Z,26.30
2018-07-25T22:06:22.028Z,26.30
2018-07-25T22:08:49.411Z,26.20
2018-07-25T22:11:16.845Z,26.20
2018-07-25T22:13:50.057Z,26.20
2018-07-25T22:16:17.448Z,26.20
2018-07-25T22:18:45.154Z,26.20
2018-07-25T22:21:12.619Z,26.10
2018-07-25T22:23:40.039Z,26.10
2018-07-25T22:26:08.407Z,26.00
2018-07-25T22:28:35.828Z,26.00
2018-07-25T22:31:03.247Z,26.00
2018-07-25T22:33:30.603Z,25.90
2018-07-25T22:35:58.727Z,25.90
2018-07-25T22:38:29.232Z,25.90
2018-07-25T22:40:56.777Z,25.90
2018-07-25T22:43:24.286Z,25.90
2018-07-25T22:45:51.691Z,25.90
2018-07-25T22:48:19.427Z,25.80
2018-07-25T22:50:50.786Z,25.80
2018-07-25T22:53:18.206Z,25.80
2018-07-25T22:55:45.575Z,25.70
2018-07-25T22:58:12.966Z,25.70
2018-07-25T23:00:40.333Z,25.60
2018-07-25T23:03:07.730Z,25.50
2018-07-25T23:05:35.199Z,25.50
2018-07-25T23:08:02.586Z,25.50
2018-07-25T23:10:30.130Z,25.50
2018-07-25T23:13:01.479Z,25.50
2018-07-25T23:15:29.347Z,25.40
2018-07-25T23:17:56.814Z,25.40
2018-07-25T23:20:24.285Z,25.30
2018-07-25T23:22:57.291Z,25.30
2018-07-25T23:25:25.094Z,25.30
2018-07-25T23:27:58.082Z,25.20
2018-07-25T23:30:26.654Z,25.10
2018-07-25T23:32:54.088Z,25.00
2018-07-25T23:35:21.544Z,25.00
2018-07-25T23:37:49.503Z,24.90
2018-07-25T23:40:17.383Z,24.90
2018-07-25T23:42:44.868Z,24.90
2018-07-25T23:45:12.242Z,24.80
2018-07-25T23:47:39.595Z,24.80
2018-07-25T23:50:07.020Z,24.80
2018-07-25T23:52:34.443Z,24.70
2018-07-25T23:55:01.811Z,24.70
2018-07-25T23:57:29.214Z,24.60
2018-07-25T23:59:56.723Z,24.60
